createdAt,value
2019-03-31T00:00:50.731Z,15.30
2019-03-31T00:03:18.954Z,17.10
2019-03-31T00:05:47.206Z,14.70
2019-03-31T00:08:15.419Z,16.20
2019-03-31T00:10:43.630Z,16.67
2019-03-31T00:13:12.109Z,17.10
2019-03-31T00:15:40.593Z,14.40
2019-03-31T00:18:09.090Z,15.37
2019-03-31T00:20:37.205Z,24.63
2019-03-31T00:23:05.401Z,14.37
2019-03-31T00:25:34.192Z,16.00
2019-03-31T00:28:02.395Z,15.93
2019-03-31T00:30:31.121Z,15.97
2019-03-31T00:32:59.065Z,16.20
2019-03-31T00:35:27.254Z,15.10
2019-03-31T00:37:55.862Z,17.60
2019-03-31T00:40:24.464Z,13.20
2019-03-31T00:42:53.393Z,15.30
2019-03-31T00:45:21.293Z,13.10
2019-03-31T00:47:49.530Z,14.83
2019-03-31T00:50:17.989Z,16.47
2019-03-31T00:52:46.586Z,16.13
2019-03-31T00:55:15.020Z,14.10
2019-03-31T00:57:43.265Z,15.90
2019-03-31T01:00:13.786Z,13.87
2019-03-31T01:02:41.881Z,12.87
2019-03-31T01:05:10.032Z,13.27
2019-03-31T01:07:38.928Z,11.90
2019-03-31T01:10:08.745Z,14.43
2019-03-31T01:12:37.019Z,13.87
2019-03-31T01:15:07.947Z,14.13
2019-03-31T01:17:36.258Z,16.53
2019-03-31T01:20:04.455Z,16.80
2019-03-31T01:22:32.987Z,17.20
2019-03-31T01:25:01.370Z,18.50
2019-03-31T01:27:29.386Z,19.10
2019-03-31T01:29:57.631Z,15.77
2019-03-31T01:32:26.333Z,17.30
2019-03-31T01:34:54.722Z,16.73
2019-03-31T01:37:23.029Z,14.93
2019-03-31T01:39:51.517Z,16.07
2019-03-31T01:42:19.907Z,16.20
2019-03-31T01:44:48.262Z,24.37
2019-03-31T01:47:17.064Z,23.70
2019-03-31T01:49:45.252Z,16.23
2019-03-31T01:52:13.185Z,19.47
2019-03-31T01:54:41.479Z,16.60
2019-03-31T01:57:10.025Z,15.70
2019-03-31T01:59:38.025Z,16.17
2019-03-31T02:02:07.915Z,18.73
2019-03-31T02:04:35.902Z,15.87
2019-03-31T02:07:04.369Z,18.23
2019-03-31T02:09:32.541Z,16.93
2019-03-31T02:12:00.806Z,22.93
2019-03-31T02:14:29.298Z,17.17
2019-03-31T02:16:57.818Z,18.20
2019-03-31T02:19:26.086Z,16.40
2019-03-31T02:21:54.850Z,19.00
2019-03-31T02:24:23.496Z,17.60
2019-03-31T02:26:51.419Z,19.03
2019-03-31T02:29:19.408Z,19.70
2019-03-31T02:31:47.392Z,17.83
2019-03-31T02:34:15.613Z,20.40
2019-03-31T02:36:43.522Z,21.30
2019-03-31T02:39:11.453Z,21.10
2019-03-31T02:41:40.129Z,20.13
2019-03-31T02:44:08.061Z,20.43
2019-03-31T02:46:36.786Z,17.17
2019-03-31T02:49:04.785Z,20.50
2019-03-31T02:51:33.029Z,18.50
2019-03-31T02:54:01.322Z,16.27
2019-03-31T02:56:30.423Z,18.80
2019-03-31T02:59:00.316Z,18.27
2019-03-31T03:01:29.706Z,18.30
2019-03-31T03:03:58.154Z,17.03
2019-03-31T03:06:27.825Z,15.90
2019-03-31T03:08:56.834Z,17.63
2019-03-31T03:11:26.310Z,16.40
2019-03-31T03:13:56.304Z,16.53
2019-03-31T03:16:24.567Z,17.87
2019-03-31T03:18:53.540Z,16.40
2019-03-31T03:21:24.013Z,17.57
2019-03-31T03:23:51.860Z,17.73
2019-03-31T03:26:20.250Z,16.10
2019-03-31T03:28:48.501Z,17.20
2019-03-31T03:31:17.284Z,17.50
2019-03-31T03:33:45.695Z,17.20
2019-03-31T03:36:14.198Z,17.17
2019-03-31T03:38:43.002Z,25.87
2019-03-31T03:41:11.640Z,14.17
2019-03-31T03:43:54.130Z,14.73
2019-03-31T03:46:10.387Z,16.03
2019-03-31T03:48:38.555Z,15.90
2019-03-31T03:51:06.757Z,17.20
2019-03-31T03:53:35.003Z,15.63
2019-03-31T03:56:03.025Z,16.17
2019-03-31T03:58:30.957Z,16.70
2019-03-31T04:00:59.173Z,15.73
2019-03-31T04:03:30.653Z,20.33
2019-03-31T04:05:57.278Z,18.47
2019-03-31T04:08:25.193Z,15.80
2019-03-31T04:11:14.839Z,18.80
2019-03-31T04:13:42.838Z,17.70
2019-03-31T04:16:10.746Z,16.43
2019-03-31T04:18:39.061Z,18.20
2019-03-31T04:21:07.514Z,19.97
2019-03-31T04:23:35.707Z,19.07
2019-03-31T04:26:04.314Z,16.03
2019-03-31T04:28:32.582Z,16.00
2019-03-31T04:31:01.476Z,18.33
2019-03-31T04:33:48.318Z,16.60
2019-03-31T04:35:59.037Z,15.77
2019-03-31T04:38:27.359Z,15.37
2019-03-31T04:40:55.796Z,15.47
2019-03-31T04:43:23.974Z,19.30
2019-03-31T04:45:51.885Z,15.93
2019-03-31T04:48:20.126Z,18.47
2019-03-31T04:50:51.714Z,21.60
2019-03-31T04:53:18.584Z,20.53
2019-03-31T04:55:46.873Z,19.20
2019-03-31T04:58:15.066Z,17.00
2019-03-31T05:00:43.651Z,16.13
2019-03-31T05:03:13.118Z,18.37
2019-03-31T05:05:41.346Z,19.60
2019-03-31T05:08:09.598Z,17.30
2019-03-31T05:10:38.157Z,18.77
2019-03-31T05:13:06.667Z,19.13
2019-03-31T05:15:34.602Z,19.37
2019-03-31T05:18:03.117Z,18.50
2019-03-31T05:20:32.005Z,24.10
2019-03-31T05:23:00.401Z,18.87
2019-03-31T05:25:28.612Z,21.10
2019-03-31T05:27:57.278Z,17.40
2019-03-31T05:30:25.200Z,19.37
2019-03-31T05:32:53.372Z,18.00
2019-03-31T05:35:21.575Z,18.40
2019-03-31T05:37:51.078Z,27.93
2019-03-31T05:40:19.508Z,18.30
2019-03-31T05:42:48.033Z,19.10
2019-03-31T05:45:16.189Z,17.60
2019-03-31T05:47:44.453Z,18.10
2019-03-31T05:50:12.661Z,20.70
2019-03-31T05:52:40.586Z,21.00
2019-03-31T05:55:08.776Z,18.43
2019-03-31T05:57:36.989Z,18.53
2019-03-31T06:00:05.346Z,18.27
2019-03-31T06:02:34.015Z,20.90
2019-03-31T06:05:01.932Z,21.17
2019-03-31T06:07:30.187Z,19.70
2019-03-31T06:09:58.475Z,17.20
2019-03-31T06:12:26.438Z,21.93
2019-03-31T06:14:54.354Z,26.50
2019-03-31T06:17:22.549Z,22.33
2019-03-31T06:19:50.990Z,28.27
2019-03-31T06:22:19.533Z,26.17
2019-03-31T06:24:47.876Z,25.53
2019-03-31T06:27:16.018Z,19.93
2019-03-31T06:29:44.593Z,21.77
2019-03-31T06:32:12.818Z,21.77
2019-03-31T06:34:47.201Z,19.80
2019-03-31T06:37:11.117Z,22.00
2019-03-31T06:39:40.359Z,20.53
2019-03-31T06:42:09.130Z,19.60
2019-03-31T06:44:38.215Z,22.33
2019-03-31T06:47:07.007Z,22.27
2019-03-31T06:49:35.801Z,22.60
2019-03-31T06:52:03.802Z,19.53
2019-03-31T06:54:32.448Z,23.67
2019-03-31T06:57:00.735Z,20.30
2019-03-31T06:59:29.625Z,21.77
2019-03-31T07:01:57.884Z,23.70
2019-03-31T07:04:26.250Z,34.53
2019-03-31T07:06:54.455Z,25.80
2019-03-31T07:09:22.631Z,22.23
2019-03-31T07:11:50.577Z,22.67
2019-03-31T07:14:18.837Z,20.70
2019-03-31T07:16:46.780Z,25.30
2019-03-31T07:19:15.570Z,25.17
2019-03-31T07:21:44.138Z,25.33
2019-03-31T07:24:12.382Z,24.37
2019-03-31T07:26:40.314Z,25.43
2019-03-31T07:29:09.068Z,25.40
2019-03-31T07:31:37.626Z,24.87
2019-03-31T07:34:05.795Z,27.50
2019-03-31T07:36:34.277Z,26.00
2019-03-31T07:39:04.607Z,27.83
2019-03-31T07:41:33.422Z,28.63
2019-03-31T07:44:02.024Z,28.47
2019-03-31T07:46:30.329Z,30.10
2019-03-31T07:48:58.539Z,29.10
2019-03-31T07:51:26.470Z,28.70
2019-03-31T07:53:55.180Z,30.90
2019-03-31T07:56:23.429Z,30.03
2019-03-31T07:58:52.115Z,28.00
2019-03-31T08:01:20.396Z,30.57
2019-03-31T08:03:48.574Z,33.23
2019-03-31T08:06:16.493Z,37.67
2019-03-31T08:08:44.988Z,41.47
2019-03-31T08:11:13.194Z,35.23
2019-03-31T08:13:41.114Z,46.63
2019-03-31T08:16:09.323Z,50.83
2019-03-31T08:18:37.646Z,57.87
2019-03-31T08:21:06.452Z,53.50
2019-03-31T08:23:34.642Z,66.63
2019-03-31T08:26:02.906Z,60.50
2019-03-31T08:28:31.779Z,62.17
2019-03-31T08:30:59.961Z,64.33
2019-03-31T08:33:28.540Z,64.10
2019-03-31T08:35:56.711Z,67.43
2019-03-31T08:38:25.194Z,68.33
2019-03-31T08:40:53.805Z,44.60
2019-03-31T08:43:22.015Z,33.87
2019-03-31T08:45:50.526Z,35.07
2019-03-31T08:48:18.454Z,32.23
2019-03-31T08:50:46.642Z,34.67
2019-03-31T08:53:14.856Z,37.50
2019-03-31T08:55:42.906Z,45.23
2019-03-31T08:58:11.091Z,40.47
2019-03-31T09:01:07.322Z,40.80
2019-03-31T09:03:35.581Z,48.03
2019-03-31T09:06:04.065Z,43.60
2019-03-31T09:08:32.026Z,72.90
2019-03-31T09:11:00.279Z,44.60
2019-03-31T09:13:28.909Z,43.23
2019-03-31T09:15:56.849Z,47.97
2019-03-31T09:18:25.107Z,47.53
2019-03-31T09:20:53.350Z,51.07
2019-03-31T09:23:21.581Z,49.23
2019-03-31T09:25:50.086Z,54.93
2019-03-31T09:30:46.402Z,52.20
2019-03-31T09:33:14.671Z,53.33
2019-03-31T09:35:43.131Z,51.00
2019-03-31T09:38:11.429Z,48.40
2019-03-31T09:40:39.742Z,48.30
2019-03-31T09:43:08.053Z,52.70
2019-03-31T09:45:36.613Z,53.83
2019-03-31T09:48:04.842Z,48.77
2019-03-31T09:50:33.553Z,54.97
2019-03-31T09:53:03.672Z,51.60
2019-03-31T09:55:32.052Z,47.73
2019-03-31T09:58:00.236Z,47.83
2019-03-31T10:00:42.930Z,48.00
2019-03-31T10:03:10.865Z,46.50
2019-03-31T10:05:38.778Z,52.67
2019-03-31T10:08:06.977Z,42.80
2019-03-31T10:10:34.892Z,46.33
2019-03-31T10:13:03.226Z,48.00
2019-03-31T10:15:31.454Z,49.10
2019-03-31T10:17:59.747Z,49.80
2019-03-31T10:20:31.281Z,47.00
2019-03-31T10:22:57.967Z,50.67
2019-03-31T10:25:26.441Z,49.50
2019-03-31T10:27:54.993Z,47.73
2019-03-31T10:30:32.902Z,51.27
2019-03-31T10:33:01.413Z,47.10
2019-03-31T10:35:30.082Z,55.13
2019-03-31T10:37:58.009Z,51.47
2019-03-31T10:40:26.213Z,59.13
2019-03-31T10:42:54.705Z,55.47
2019-03-31T10:45:22.629Z,56.20
2019-03-31T10:47:51.466Z,61.57
2019-03-31T10:50:20.054Z,58.33
2019-03-31T10:52:47.961Z,56.80
2019-03-31T10:55:16.167Z,61.23
2019-03-31T10:57:44.086Z,58.13
2019-03-31T11:00:12.152Z,56.23
2019-03-31T11:02:40.620Z,55.10
2019-03-31T11:05:10.082Z,61.77
2019-03-31T11:07:38.661Z,61.63
2019-03-31T11:10:08.205Z,59.90
2019-03-31T11:12:36.629Z,60.07
2019-03-31T11:15:05.019Z,57.37
2019-03-31T11:17:33.509Z,64.97
2019-03-31T11:20:02.091Z,58.50
2019-03-31T11:22:34.919Z,64.90
2019-03-31T11:25:02.917Z,55.70
2019-03-31T11:27:31.535Z,57.27
2019-03-31T11:30:00.089Z,57.63
2019-03-31T11:32:28.786Z,56.43
2019-03-31T11:34:56.688Z,55.87
2019-03-31T11:37:25.507Z,55.00
2019-03-31T11:39:53.792Z,54.23
2019-03-31T11:42:22.017Z,51.80
2019-03-31T11:44:50.174Z,59.83
2019-03-31T11:47:18.105Z,58.97
2019-03-31T11:49:46.548Z,55.00
2019-03-31T11:52:14.809Z,52.87
2019-03-31T11:54:45.922Z,50.30
2019-03-31T11:57:17.366Z,55.43
2019-03-31T11:59:44.286Z,53.00
2019-03-31T12:02:26.033Z,51.63
2019-03-31T12:04:42.922Z,51.00
2019-03-31T12:07:11.159Z,51.13
2019-03-31T12:09:39.416Z,47.23
2019-03-31T12:12:07.724Z,52.77
2019-03-31T12:14:36.732Z,52.40
2019-03-31T12:17:05.290Z,51.83
2019-03-31T12:19:33.564Z,53.53
2019-03-31T12:22:02.314Z,49.23
2019-03-31T12:24:30.601Z,50.07
2019-03-31T12:26:59.109Z,51.30
2019-03-31T12:29:27.702Z,53.00
2019-03-31T12:31:55.941Z,48.30
2019-03-31T12:34:24.151Z,46.17
2019-03-31T12:36:52.433Z,45.90
2019-03-31T12:39:20.686Z,41.13
2019-03-31T12:41:49.357Z,41.73
2019-03-31T12:44:18.182Z,44.63
2019-03-31T12:46:46.116Z,42.67
2019-03-31T12:49:14.415Z,38.00
2019-03-31T12:51:42.633Z,42.30
2019-03-31T12:54:10.934Z,40.70
2019-03-31T12:56:39.126Z,35.30
2019-03-31T12:59:07.277Z,39.00
2019-03-31T13:01:35.671Z,37.60
2019-03-31T13:04:03.590Z,33.60
2019-03-31T13:06:32.122Z,32.57
2019-03-31T13:09:00.702Z,33.70
2019-03-31T13:11:28.909Z,32.23
2019-03-31T13:13:56.836Z,33.50
2019-03-31T13:16:25.087Z,32.50
2019-03-31T13:18:53.514Z,32.13
2019-03-31T13:21:21.961Z,30.93
2019-03-31T13:23:50.488Z,29.10
2019-03-31T13:26:19.215Z,30.00
2019-03-31T13:28:47.837Z,32.87
2019-03-31T13:31:16.610Z,31.57
2019-03-31T13:33:44.824Z,31.00
2019-03-31T13:36:13.084Z,27.57
2019-03-31T13:38:41.000Z,28.13
2019-03-31T13:41:08.929Z,28.73
2019-03-31T13:43:36.874Z,27.87
2019-03-31T13:46:05.091Z,25.37
2019-03-31T13:48:33.036Z,28.40
2019-03-31T13:51:01.458Z,30.47
2019-03-31T13:53:29.912Z,29.80
2019-03-31T13:55:58.100Z,28.27
2019-03-31T13:58:28.660Z,29.27
2019-03-31T14:00:57.558Z,25.57
2019-03-31T14:03:25.846Z,26.77
2019-03-31T14:05:55.957Z,29.40
2019-03-31T14:08:26.085Z,27.33
2019-03-31T14:10:54.165Z,24.93
2019-03-31T14:13:22.390Z,26.10
2019-03-31T14:15:50.698Z,25.57
2019-03-31T14:18:18.619Z,25.57
2019-03-31T14:20:46.637Z,28.57
2019-03-31T14:23:14.609Z,25.80
2019-03-31T14:25:42.522Z,25.20
2019-03-31T14:28:11.357Z,25.50
2019-03-31T14:30:39.561Z,23.90
2019-03-31T14:33:07.497Z,25.90
2019-03-31T14:35:38.087Z,25.63
2019-03-31T14:38:06.069Z,31.47
2019-03-31T14:40:34.416Z,27.60
2019-03-31T14:43:03.055Z,26.00
2019-03-31T14:45:32.117Z,25.50
2019-03-31T14:48:00.497Z,23.43
2019-03-31T14:50:32.389Z,25.97
2019-03-31T14:53:00.702Z,25.60
2019-03-31T14:55:29.223Z,28.23
2019-03-31T14:57:57.175Z,22.13
2019-03-31T15:00:25.240Z,28.33
2019-03-31T15:02:53.153Z,23.33
2019-03-31T15:05:21.070Z,24.57
2019-03-31T15:07:50.002Z,25.10
2019-03-31T15:10:17.912Z,24.40
2019-03-31T15:12:46.149Z,27.40
2019-03-31T15:15:14.405Z,23.33
2019-03-31T15:17:42.898Z,23.00
2019-03-31T15:20:11.464Z,23.30
2019-03-31T15:22:39.385Z,25.63
2019-03-31T15:25:08.441Z,22.93
2019-03-31T15:27:36.852Z,24.17
2019-03-31T15:30:05.090Z,22.70
2019-03-31T15:32:33.273Z,25.17
2019-03-31T15:35:01.758Z,25.10
2019-03-31T15:37:30.277Z,22.33
2019-03-31T15:39:58.200Z,23.77
2019-03-31T15:42:26.410Z,23.40
2019-03-31T15:44:54.583Z,25.13
2019-03-31T15:47:22.841Z,21.77
2019-03-31T15:49:51.157Z,20.73
2019-03-31T15:52:19.679Z,21.93
2019-03-31T15:54:48.393Z,22.20
2019-03-31T15:57:17.162Z,21.73
2019-03-31T15:59:53.628Z,18.80
2019-03-31T16:02:23.131Z,20.53
2019-03-31T16:04:51.297Z,17.63
2019-03-31T16:07:19.717Z,18.20
2019-03-31T16:09:47.886Z,19.63
2019-03-31T16:12:16.233Z,22.20
2019-03-31T16:14:44.400Z,18.00
2019-03-31T16:17:12.339Z,18.10
2019-03-31T16:19:40.280Z,22.10
2019-03-31T16:22:08.270Z,20.60
2019-03-31T16:24:42.723Z,18.00
2019-03-31T16:27:10.368Z,18.83
2019-03-31T16:29:38.017Z,14.90
2019-03-31T16:32:05.998Z,13.83
2019-03-31T16:34:34.030Z,15.83
2019-03-31T16:37:02.370Z,14.53
2019-03-31T16:39:37.456Z,13.30
2019-03-31T16:42:00.562Z,15.20
2019-03-31T16:44:28.572Z,15.40
2019-03-31T16:46:57.017Z,14.10
2019-03-31T16:49:24.950Z,13.60
2019-03-31T16:51:52.617Z,11.90
2019-03-31T16:54:20.598Z,16.37
2019-03-31T16:56:48.481Z,15.87
2019-03-31T16:59:16.765Z,13.47
2019-03-31T17:01:44.738Z,11.30
2019-03-31T17:04:12.633Z,13.30
2019-03-31T17:06:40.830Z,11.30
2019-03-31T17:09:08.578Z,12.60
2019-03-31T17:11:36.515Z,11.53
2019-03-31T17:14:04.621Z,12.53
2019-03-31T17:16:32.599Z,11.90
2019-03-31T17:19:00.566Z,10.50
2019-03-31T17:21:28.492Z,10.40
2019-03-31T17:23:56.124Z,9.97
2019-03-31T17:26:24.042Z,10.93
2019-03-31T17:28:52.281Z,9.90
2019-03-31T17:31:20.265Z,10.40
2019-03-31T17:33:48.636Z,11.70
2019-03-31T17:36:16.530Z,8.60
2019-03-31T17:38:44.165Z,11.17
2019-03-31T17:41:11.817Z,9.73
2019-03-31T17:43:39.999Z,8.03
2019-03-31T17:46:08.478Z,10.63
2019-03-31T17:48:36.113Z,8.20
2019-03-31T17:51:04.482Z,10.80
2019-03-31T17:53:32.370Z,11.90
2019-03-31T17:56:00.017Z,9.70
2019-03-31T17:58:27.974Z,12.17
2019-03-31T18:00:56.507Z,9.10
2019-03-31T18:03:24.504Z,10.60
2019-03-31T18:05:52.410Z,11.00
2019-03-31T18:08:20.358Z,9.97
2019-03-31T18:10:48.529Z,8.77
2019-03-31T18:13:16.181Z,9.60
2019-03-31T18:15:43.834Z,10.80
2019-03-31T18:18:12.438Z,7.63
2019-03-31T18:20:40.353Z,9.07
2019-03-31T18:23:08.314Z,10.20
2019-03-31T18:25:36.670Z,8.43
2019-03-31T18:28:04.712Z,9.40
2019-03-31T18:30:32.642Z,9.07
2019-03-31T18:33:00.610Z,9.67
2019-03-31T18:35:28.529Z,10.80
2019-03-31T18:37:56.188Z,9.10
2019-03-31T18:40:34.302Z,9.27
2019-03-31T18:42:53.816Z,9.57
2019-03-31T18:45:21.726Z,7.80
2019-03-31T18:47:49.655Z,10.83
2019-03-31T18:50:17.317Z,9.37
2019-03-31T18:52:45.697Z,9.63
2019-03-31T18:55:23.558Z,8.93
2019-03-31T18:58:06.022Z,13.70
2019-03-31T19:00:55.931Z,12.47
2019-03-31T19:03:32.512Z,10.70
2019-03-31T19:06:22.663Z,7.73
2019-03-31T19:09:21.921Z,7.63
2019-03-31T19:12:08.972Z,8.47
2019-03-31T19:14:55.778Z,7.90
2019-03-31T19:17:54.677Z,6.60
2019-03-31T19:20:49.968Z,7.23
2019-03-31T19:23:42.772Z,11.30
2019-03-31T19:26:28.473Z,10.70
2019-03-31T19:29:16.967Z,9.33
2019-03-31T19:32:10.406Z,7.43
2019-03-31T19:34:57.477Z,8.67
2019-03-31T19:37:37.122Z,7.17
2019-03-31T19:40:13.686Z,9.23
2019-03-31T19:42:59.086Z,6.43
2019-03-31T19:45:46.169Z,7.50
2019-03-31T19:48:42.049Z,7.83
2019-03-31T19:51:40.958Z,6.93
2019-03-31T19:54:30.786Z,6.77
2019-03-31T19:57:12.140Z,6.27
2019-03-31T19:59:58.065Z,6.37
2019-03-31T20:02:47.844Z,8.20
2019-03-31T20:05:43.737Z,9.23
2019-03-31T20:08:33.300Z,7.00
2019-03-31T20:11:10.959Z,6.43
2019-03-31T20:14:13.076Z,6.63
2019-03-31T20:17:02.973Z,6.73
2019-03-31T20:19:52.646Z,5.27
2019-03-31T20:22:31.889Z,6.47
2019-03-31T20:25:17.883Z,7.13
2019-03-31T20:28:17.280Z,9.10
2019-03-31T20:31:13.007Z,6.97
2019-03-31T20:33:58.516Z,4.77
2019-03-31T20:36:41.396Z,8.60
2019-03-31T20:39:34.212Z,5.27
2019-03-31T20:42:11.751Z,4.60
2019-03-31T20:44:39.914Z,4.60
2019-03-31T20:47:07.974Z,6.37
2019-03-31T20:49:35.973Z,7.73
2019-03-31T20:52:03.633Z,7.70
2019-03-31T20:54:33.115Z,5.60
2019-03-31T20:57:01.021Z,9.47
2019-03-31T20:59:28.681Z,5.43
2019-03-31T21:01:56.905Z,4.50
2019-03-31T21:04:25.310Z,5.07
2019-03-31T21:06:52.937Z,4.53
2019-03-31T21:09:21.214Z,5.53
2019-03-31T21:11:49.113Z,8.03
2019-03-31T21:14:16.781Z,6.50
2019-03-31T21:16:44.770Z,5.53
2019-03-31T21:19:12.446Z,5.23
2019-03-31T21:21:40.079Z,5.77
2019-03-31T21:24:07.845Z,6.70
2019-03-31T21:26:35.829Z,7.67
2019-03-31T21:29:04.180Z,4.33
2019-03-31T21:31:32.764Z,5.20
2019-03-31T21:34:00.929Z,3.90
2019-03-31T21:36:28.819Z,6.13
2019-03-31T21:38:56.470Z,8.27
2019-03-31T21:41:24.384Z,5.30
2019-03-31T21:43:52.857Z,3.73
2019-03-31T21:46:21.153Z,4.17
2019-03-31T21:48:49.473Z,4.03
2019-03-31T21:51:17.490Z,4.13
2019-03-31T21:53:45.638Z,3.90
2019-03-31T21:56:13.939Z,5.40
2019-03-31T21:58:42.163Z,4.73
2019-03-31T22:01:09.898Z,5.43
2019-03-31T22:03:38.617Z,4.63
2019-03-31T22:06:07.128Z,5.17
2019-03-31T22:08:35.274Z,3.90
2019-03-31T22:11:02.925Z,5.87
2019-03-31T22:13:30.901Z,6.20
2019-03-31T22:15:58.841Z,4.70
2019-03-31T22:18:26.494Z,3.90
2019-03-31T22:20:54.152Z,6.93
2019-03-31T22:23:22.125Z,5.47
2019-03-31T22:25:50.184Z,5.13
2019-03-31T22:28:18.382Z,4.90
2019-03-31T22:30:46.074Z,6.30
2019-03-31T22:33:13.777Z,4.37
2019-03-31T22:35:43.333Z,5.30
2019-03-31T22:38:10.985Z,6.90
2019-03-31T22:40:38.990Z,5.87
2019-03-31T22:43:07.946Z,5.37
2019-03-31T22:45:35.771Z,5.03
2019-03-31T22:48:03.417Z,3.80
2019-03-31T22:50:31.881Z,4.70
2019-03-31T22:52:59.615Z,4.57
2019-03-31T22:55:28.172Z,5.83
2019-03-31T22:57:56.198Z,4.63
2019-03-31T23:00:26.482Z,3.93
2019-03-31T23:02:54.436Z,4.23
2019-03-31T23:05:22.213Z,3.53
2019-03-31T23:07:50.215Z,5.90
2019-03-31T23:10:18.134Z,5.10
2019-03-31T23:12:45.782Z,7.63
2019-03-31T23:15:13.492Z,4.67
2019-03-31T23:17:41.426Z,4.13
2019-03-31T23:20:09.388Z,3.50
2019-03-31T23:22:37.717Z,3.47
2019-03-31T23:25:05.945Z,3.90
2019-03-31T23:27:34.232Z,4.43
2019-03-31T23:30:02.329Z,4.97
2019-03-31T23:32:30.223Z,4.53
2019-03-31T23:34:58.167Z,7.30
2019-03-31T23:37:25.796Z,6.40
2019-03-31T23:39:53.969Z,5.70
2019-03-31T23:42:21.972Z,4.30
2019-03-31T23:44:49.701Z,5.10
2019-03-31T23:47:17.720Z,8.13
2019-03-31T23:49:46.011Z,4.10
2019-03-31T23:52:13.748Z,3.40
2019-03-31T23:54:41.812Z,4.10
2019-03-31T23:57:09.455Z,6.03
2019-03-31T23:59:37.487Z,5.33
